createdAt,value
2022-08-26T00:02:13.661Z,21.59
2022-08-26T00:04:44.680Z,21.60
2022-08-26T00:07:14.610Z,21.60
2022-08-26T00:09:47.346Z,21.60
2022-08-26T00:12:17.041Z,21.57
2022-08-26T00:14:47.142Z,21.58
2022-08-26T00:17:16.540Z,21.59
2022-08-26T00:19:46.066Z,21.60
2022-08-26T00:22:20.265Z,21.61
2022-08-26T00:24:52.673Z,21.60
2022-08-26T00:27:22.061Z,21.62
2022-08-26T00:29:51.673Z,21.61
2022-08-26T00:32:21.078Z,21.60
2022-08-26T00:34:50.338Z,21.60
2022-08-26T00:37:19.990Z,21.60
2022-08-26T00:39:49.498Z,21.60
2022-08-26T00:42:20.474Z,21.61
2022-08-26T00:44:50.792Z,21.62
2022-08-26T00:47:31.055Z,21.63
2022-08-26T00:50:03.144Z,21.62
2022-08-26T00:52:33.178Z,21.64
2022-08-26T00:55:10.396Z,21.65
2022-08-26T00:57:42.217Z,21.66
2022-08-26T01:00:15.905Z,21.66
2022-08-26T01:02:47.477Z,21.65
2022-08-26T01:05:17.638Z,21.66
2022-08-26T01:07:47.829Z,21.67
2022-08-26T01:10:23.259Z,21.68
2022-08-26T01:13:00.607Z,21.68
2022-08-26T01:15:35.502Z,21.68
2022-08-26T01:18:07.389Z,21.71
2022-08-26T01:20:47.324Z,21.69
2022-08-26T01:23:18.248Z,21.69
2022-08-26T01:25:56.235Z,21.71
2022-08-26T01:28:30.486Z,21.71
2022-08-26T01:31:02.061Z,21.73
2022-08-26T01:33:42.026Z,21.73
2022-08-26T01:36:13.440Z,21.73
2022-08-26T01:38:44.782Z,21.74
2022-08-26T01:41:19.650Z,21.73
2022-08-26T01:43:55.565Z,21.75
2022-08-26T01:46:27.265Z,21.75
2022-08-26T01:49:01.281Z,21.75
2022-08-26T01:51:37.281Z,21.76
2022-08-26T01:54:12.084Z,21.75
2022-08-26T01:56:43.551Z,21.74
2022-08-26T01:59:16.377Z,21.75
2022-08-26T02:01:47.753Z,21.75
2022-08-26T02:04:21.370Z,21.76
2022-08-26T02:06:51.550Z,21.75
2022-08-26T02:09:22.043Z,21.75
2022-08-26T02:11:52.453Z,21.73
2022-08-26T02:14:26.895Z,21.75
2022-08-26T02:16:57.114Z,21.75
2022-08-26T02:19:30.457Z,21.75
2022-08-26T02:22:04.205Z,21.76
2022-08-26T02:24:50.532Z,21.76
2022-08-26T02:27:23.752Z,21.75
2022-08-26T02:29:57.709Z,21.76
2022-08-26T02:32:27.686Z,21.75
2022-08-26T02:34:57.065Z,21.75
2022-08-26T02:37:30.903Z,21.76
2022-08-26T02:40:02.188Z,21.77
2022-08-26T02:42:32.653Z,21.77
2022-08-26T02:45:02.589Z,21.76
2022-08-26T02:47:33.463Z,21.76
2022-08-26T02:50:03.086Z,21.76
2022-08-26T02:52:32.469Z,21.76
2022-08-26T02:55:03.168Z,21.77
2022-08-26T02:57:32.719Z,21.77
2022-08-26T03:00:02.899Z,21.77
2022-08-26T03:02:32.135Z,21.76
2022-08-26T03:05:02.195Z,21.77
2022-08-26T03:07:31.866Z,21.77
2022-08-26T03:10:08.393Z,21.76
2022-08-26T03:12:38.641Z,21.77
2022-08-26T03:15:17.670Z,21.76
2022-08-26T03:17:49.216Z,21.77
2022-08-26T03:20:20.400Z,21.76
2022-08-26T03:22:51.486Z,21.76
2022-08-26T03:25:23.113Z,21.77
2022-08-26T03:27:54.060Z,21.75
2022-08-26T03:30:45.437Z,21.76
2022-08-26T03:33:16.231Z,21.76
2022-08-26T03:35:47.827Z,21.77
2022-08-26T03:38:25.105Z,21.76
2022-08-26T03:40:56.300Z,21.77
2022-08-26T03:43:27.606Z,21.77
2022-08-26T03:45:56.861Z,21.76
2022-08-26T03:48:26.687Z,21.75
2022-08-26T03:50:56.158Z,21.77
2022-08-26T03:53:26.862Z,21.77
2022-08-26T03:55:57.840Z,21.78
2022-08-26T03:58:27.173Z,21.76
2022-08-26T04:00:56.410Z,21.78
2022-08-26T04:03:40.218Z,21.78
2022-08-26T04:06:09.914Z,21.77
2022-08-26T04:08:39.484Z,21.78
2022-08-26T04:11:10.579Z,21.76
2022-08-26T04:13:39.973Z,21.76
2022-08-26T04:16:09.557Z,21.76
2022-08-26T04:18:44.476Z,21.76
2022-08-26T04:21:16.483Z,21.77
2022-08-26T04:23:47.641Z,21.78
2022-08-26T04:26:21.006Z,21.78
2022-08-26T04:28:53.283Z,21.80
2022-08-26T04:31:23.410Z,21.81
2022-08-26T04:33:52.555Z,21.80
2022-08-26T04:36:23.575Z,21.81
2022-08-26T04:38:53.162Z,21.82
2022-08-26T04:41:24.676Z,21.79
2022-08-26T04:43:54.439Z,21.82
2022-08-26T04:46:25.761Z,21.84
2022-08-26T04:48:55.908Z,21.84
2022-08-26T04:51:28.055Z,21.86
2022-08-26T04:53:58.996Z,21.87
2022-08-26T04:56:32.657Z,21.88
2022-08-26T04:59:04.137Z,21.89
2022-08-26T05:01:39.719Z,21.92
2022-08-26T05:04:09.338Z,21.93
2022-08-26T05:06:38.838Z,21.94
2022-08-26T05:09:08.965Z,21.95
2022-08-26T05:11:40.383Z,21.98
2022-08-26T05:14:11.002Z,22.00
2022-08-26T05:16:40.602Z,22.01
2022-08-26T05:19:10.443Z,22.00
2022-08-26T05:21:45.861Z,22.00
2022-08-26T05:24:18.498Z,22.02
2022-08-26T05:26:49.581Z,22.03
2022-08-26T05:29:19.212Z,22.04
2022-08-26T05:31:51.982Z,22.05
2022-08-26T05:34:21.880Z,22.07
2022-08-26T05:36:51.225Z,22.08
2022-08-26T05:39:21.432Z,22.11
2022-08-26T05:41:52.685Z,22.10
2022-08-26T05:44:22.407Z,22.13
2022-08-26T05:46:52.893Z,22.14
2022-08-26T05:49:22.628Z,22.16
2022-08-26T05:51:57.613Z,22.17
2022-08-26T05:54:27.961Z,22.18
2022-08-26T05:56:58.969Z,22.19
2022-08-26T05:59:28.241Z,22.20
2022-08-26T06:01:57.730Z,22.21
2022-08-26T06:04:28.563Z,22.21
2022-08-26T06:06:58.877Z,22.22
2022-08-26T06:09:28.530Z,22.22
2022-08-26T06:12:01.885Z,22.25
2022-08-26T06:14:31.770Z,22.26
2022-08-26T06:17:01.171Z,22.27
2022-08-26T06:19:32.954Z,22.28
2022-08-26T06:22:24.018Z,22.29
2022-08-26T06:25:12.740Z,22.26
2022-08-26T06:27:44.382Z,22.29
2022-08-26T06:30:14.755Z,22.29
2022-08-26T06:32:45.692Z,22.29
2022-08-26T06:35:15.093Z,22.30
2022-08-26T06:37:44.505Z,22.28
2022-08-26T06:40:14.390Z,22.28
2022-08-26T06:42:45.165Z,22.32
2022-08-26T06:45:14.697Z,22.33
2022-08-26T06:47:44.004Z,22.34
2022-08-26T06:50:13.528Z,22.35
2022-08-26T06:52:43.705Z,22.37
2022-08-26T06:55:13.545Z,22.35
2022-08-26T06:57:44.320Z,22.36
2022-08-26T07:00:15.496Z,22.35
2022-08-26T07:02:47.039Z,22.36
2022-08-26T07:05:16.950Z,22.35
2022-08-26T07:07:47.615Z,22.33
2022-08-26T07:10:16.931Z,22.35
2022-08-26T07:12:49.459Z,22.34
2022-08-26T07:15:18.981Z,22.35
2022-08-26T07:17:55.484Z,22.38
2022-08-26T07:20:24.773Z,22.41
2022-08-26T07:22:54.296Z,22.45
2022-08-26T07:25:23.794Z,22.46
2022-08-26T07:27:55.953Z,22.49
2022-08-26T07:30:25.759Z,22.50
2022-08-26T07:32:58.030Z,22.52
2022-08-26T07:35:28.524Z,22.54
2022-08-26T07:37:57.869Z,22.59
2022-08-26T07:40:27.331Z,22.63
2022-08-26T07:42:58.145Z,22.65
2022-08-26T07:45:30.492Z,22.67
2022-08-26T07:48:01.026Z,22.72
2022-08-26T07:50:50.241Z,22.73
2022-08-26T07:53:21.339Z,22.80
2022-08-26T07:55:50.757Z,22.87
2022-08-26T07:58:21.510Z,22.93
2022-08-26T08:00:51.100Z,22.92
2022-08-26T08:03:23.383Z,22.97
2022-08-26T08:05:53.058Z,23.00
2022-08-26T08:08:27.800Z,23.00
2022-08-26T08:10:58.937Z,23.01
2022-08-26T08:13:30.604Z,23.04
2022-08-26T08:16:01.393Z,23.11
2022-08-26T08:18:30.811Z,23.15
2022-08-26T08:21:21.359Z,23.16
2022-08-26T08:23:53.229Z,23.18
2022-08-26T08:26:23.365Z,23.22
2022-08-26T08:28:57.003Z,23.25
2022-08-26T08:31:55.978Z,23.22
2022-08-26T08:34:18.159Z,23.23
2022-08-26T08:36:48.051Z,23.24
2022-08-26T08:39:17.430Z,23.28
2022-08-26T08:42:06.029Z,23.29
2022-08-26T08:44:43.030Z,23.29
2022-08-26T08:47:21.083Z,23.35
2022-08-26T08:49:50.884Z,23.39
2022-08-26T08:52:29.038Z,23.41
2022-08-26T08:54:58.926Z,23.43
2022-08-26T08:57:39.662Z,23.45
2022-08-26T09:00:17.692Z,23.48
2022-08-26T09:02:55.011Z,23.53
2022-08-26T09:05:26.721Z,23.52
2022-08-26T09:07:59.886Z,23.52
2022-08-26T09:10:35.534Z,23.60
2022-08-26T09:13:13.734Z,23.63
2022-08-26T09:16:02.403Z,23.68
2022-08-26T09:18:42.356Z,23.73
2022-08-26T09:21:18.055Z,23.76
2022-08-26T09:23:49.624Z,23.79
2022-08-26T09:26:24.747Z,23.88
2022-08-26T09:29:00.727Z,23.97
2022-08-26T09:31:34.161Z,24.00
2022-08-26T09:34:17.880Z,24.06
2022-08-26T09:36:50.230Z,24.05
2022-08-26T09:39:33.619Z,24.13
2022-08-26T09:42:12.098Z,24.17
2022-08-26T09:44:58.026Z,24.22
2022-08-26T09:48:01.798Z,24.31
2022-08-26T09:50:34.018Z,24.33
2022-08-26T09:53:12.777Z,24.31
2022-08-26T09:55:44.831Z,24.35
2022-08-26T09:58:16.156Z,24.41
2022-08-26T10:00:56.184Z,24.49
2022-08-26T10:03:32.715Z,24.54
2022-08-26T10:06:04.752Z,24.60
2022-08-26T10:08:37.697Z,24.66
2022-08-26T10:11:13.687Z,24.73
2022-08-26T10:13:46.550Z,24.72
2022-08-26T10:16:20.301Z,24.72
2022-08-26T10:19:01.822Z,24.72
2022-08-26T10:21:35.589Z,24.77
2022-08-26T10:24:08.583Z,24.83
2022-08-26T10:26:46.113Z,24.90
2022-08-26T10:29:22.635Z,24.96
2022-08-26T10:31:58.747Z,24.93
2022-08-26T10:34:34.151Z,25.00
2022-08-26T10:37:15.548Z,25.09
2022-08-26T10:39:58.561Z,25.09
2022-08-26T10:42:35.459Z,25.06
2022-08-26T10:45:15.075Z,25.08
2022-08-26T10:47:50.812Z,25.19
2022-08-26T10:50:26.372Z,25.35
2022-08-26T10:53:05.072Z,25.65
2022-08-26T10:55:42.070Z,25.83
2022-08-26T10:58:32.855Z,25.88
2022-08-26T11:01:29.036Z,25.96
2022-08-26T11:04:07.863Z,26.58
2022-08-26T11:06:39.302Z,28.26
2022-08-26T11:09:11.865Z,31.02
2022-08-26T11:12:00.442Z,32.87
2022-08-26T11:14:53.368Z,33.45
2022-08-26T11:17:58.010Z,32.25
2022-08-26T11:20:41.929Z,30.74
2022-08-26T11:23:50.585Z,29.75
2022-08-26T11:26:43.164Z,29.09
2022-08-26T11:29:13.887Z,28.73
2022-08-26T11:31:57.513Z,28.47
2022-08-26T11:35:00.597Z,28.33
2022-08-26T11:37:37.557Z,28.18
2022-08-26T11:40:17.266Z,28.02
2022-08-26T11:42:51.703Z,27.88
2022-08-26T11:45:26.841Z,27.68
2022-08-26T11:47:56.657Z,27.61
2022-08-26T11:50:29.308Z,27.63
2022-08-26T11:53:06.294Z,27.59
2022-08-26T11:55:45.066Z,27.62
2022-08-26T11:58:17.710Z,27.69
2022-08-26T12:00:54.022Z,27.78
2022-08-26T12:03:27.610Z,27.89
2022-08-26T12:05:57.458Z,27.99
2022-08-26T12:08:31.174Z,28.04
2022-08-26T12:11:09.698Z,28.06
2022-08-26T12:13:39.484Z,28.00
2022-08-26T12:16:09.910Z,27.97
2022-08-26T12:18:40.764Z,28.03
2022-08-26T12:21:22.138Z,28.11
2022-08-26T12:23:56.345Z,28.21
2022-08-26T12:26:30.643Z,28.18
2022-08-26T12:29:02.373Z,28.20
2022-08-26T12:31:44.502Z,28.26
2022-08-26T12:34:17.968Z,28.26
2022-08-26T12:36:51.160Z,28.31
2022-08-26T12:39:28.923Z,28.37
2022-08-26T12:42:00.935Z,28.37
2022-08-26T12:44:38.939Z,28.43
2022-08-26T12:47:11.571Z,28.41
2022-08-26T12:49:42.614Z,28.34
2022-08-26T12:52:31.065Z,28.25
2022-08-26T12:55:04.272Z,28.22
2022-08-26T12:57:37.346Z,28.27
2022-08-26T13:00:28.427Z,28.30
2022-08-26T13:02:58.735Z,28.28
2022-08-26T13:05:33.124Z,28.27
2022-08-26T13:08:17.301Z,28.29
2022-08-26T13:10:48.847Z,28.32
2022-08-26T13:13:19.929Z,28.35
2022-08-26T13:15:50.153Z,28.37
2022-08-26T13:18:20.007Z,28.37
2022-08-26T13:20:49.391Z,28.39
2022-08-26T13:23:19.173Z,28.43
2022-08-26T13:25:48.831Z,28.40
2022-08-26T13:28:20.408Z,28.33
2022-08-26T13:30:50.475Z,28.31
2022-08-26T13:33:21.676Z,28.31
2022-08-26T13:35:51.267Z,28.29
2022-08-26T13:38:33.246Z,28.27
2022-08-26T13:41:04.825Z,28.33
2022-08-26T13:43:35.721Z,28.41
2022-08-26T13:46:05.375Z,28.47
2022-08-26T13:48:35.215Z,28.58
2022-08-26T13:51:08.871Z,28.66
2022-08-26T13:53:38.451Z,28.70
2022-08-26T13:56:11.310Z,28.70
2022-08-26T13:58:42.146Z,28.70
2022-08-26T14:01:11.833Z,28.65
2022-08-26T14:03:43.845Z,28.66
2022-08-26T14:06:13.774Z,28.62
2022-08-26T14:08:44.460Z,28.55
2022-08-26T14:11:14.150Z,28.49
2022-08-26T14:13:45.276Z,28.53
2022-08-26T14:16:18.796Z,28.56
2022-08-26T14:18:50.731Z,28.53
2022-08-26T14:21:20.902Z,28.48
2022-08-26T14:23:50.310Z,28.41
2022-08-26T14:26:28.840Z,28.35
2022-08-26T14:29:02.788Z,28.29
2022-08-26T14:31:34.800Z,28.29
2022-08-26T14:34:07.559Z,28.22
2022-08-26T14:36:38.276Z,28.14
2022-08-26T14:39:10.646Z,28.16
2022-08-26T14:41:54.410Z,28.17
2022-08-26T14:44:29.518Z,27.99
2022-08-26T14:47:01.141Z,27.94
2022-08-26T14:49:31.664Z,27.92
2022-08-26T14:52:01.501Z,27.87
2022-08-26T14:54:30.300Z,27.87
2022-08-26T14:57:02.412Z,27.97
2022-08-26T14:59:35.298Z,28.04
2022-08-26T15:02:05.982Z,28.13
2022-08-26T15:04:35.972Z,28.11
2022-08-26T15:07:06.490Z,28.08
2022-08-26T15:09:38.593Z,28.09
2022-08-26T15:12:08.822Z,28.10
2022-08-26T15:14:39.623Z,28.05
2022-08-26T15:17:09.498Z,28.12
2022-08-26T15:19:38.789Z,28.04
2022-08-26T15:22:08.111Z,28.03
2022-08-26T15:24:37.893Z,28.08
2022-08-26T15:27:07.382Z,28.16
2022-08-26T15:29:39.245Z,28.17
2022-08-26T15:32:10.387Z,28.07
2022-08-26T15:34:40.108Z,28.01
2022-08-26T15:37:09.779Z,27.98
2022-08-26T15:39:39.569Z,28.01
2022-08-26T15:42:08.866Z,28.01
2022-08-26T15:44:38.636Z,27.96
2022-08-26T15:47:09.250Z,27.97
2022-08-26T15:49:38.948Z,27.90
2022-08-26T15:52:09.418Z,27.83
2022-08-26T15:54:39.700Z,27.78
2022-08-26T15:57:12.360Z,27.76
2022-08-26T15:59:43.154Z,27.79
2022-08-26T16:02:14.328Z,27.77
2022-08-26T16:04:43.746Z,27.77
2022-08-26T16:07:13.086Z,27.80
2022-08-26T16:09:42.493Z,27.80
2022-08-26T16:12:11.999Z,27.77
2022-08-26T16:14:43.622Z,27.75
2022-08-26T16:17:14.462Z,27.72
2022-08-26T16:19:43.839Z,27.69
2022-08-26T16:22:13.214Z,27.64
2022-08-26T16:24:42.846Z,27.61
2022-08-26T16:27:13.082Z,27.57
2022-08-26T16:29:43.003Z,27.52
2022-08-26T16:32:13.790Z,27.46
2022-08-26T16:34:47.000Z,27.45
2022-08-26T16:37:26.554Z,27.39
2022-08-26T16:39:55.996Z,27.32
2022-08-26T16:42:25.685Z,27.27
2022-08-26T16:44:54.833Z,27.21
2022-08-26T16:47:26.488Z,27.14
2022-08-26T16:49:55.962Z,27.08
2022-08-26T16:52:25.914Z,27.02
2022-08-26T16:55:01.024Z,26.94
2022-08-26T16:57:30.769Z,26.88
2022-08-26T17:00:51.094Z,26.81
2022-08-26T17:03:23.892Z,26.74
2022-08-26T17:05:53.719Z,26.69
2022-08-26T17:08:28.473Z,26.64
2022-08-26T17:11:00.544Z,26.60
2022-08-26T17:13:35.429Z,26.55
2022-08-26T17:16:06.589Z,26.52
2022-08-26T17:18:38.781Z,26.47
2022-08-26T17:21:10.520Z,26.41
2022-08-26T17:23:41.365Z,26.37
2022-08-26T17:26:12.305Z,26.29
2022-08-26T17:28:42.574Z,26.23
2022-08-26T17:31:14.381Z,26.17
2022-08-26T17:33:47.850Z,26.15
2022-08-26T17:36:20.691Z,26.06
2022-08-26T17:38:50.340Z,26.01
2022-08-26T17:41:23.641Z,25.95
2022-08-26T17:43:53.226Z,25.87
2022-08-26T17:46:22.864Z,25.81
2022-08-26T17:48:53.596Z,25.76
2022-08-26T17:51:23.534Z,25.71
2022-08-26T17:53:53.652Z,25.65
2022-08-26T17:56:26.195Z,25.59
2022-08-26T17:58:57.691Z,25.50
2022-08-26T18:01:32.006Z,25.43
2022-08-26T18:04:02.817Z,25.36
2022-08-26T18:06:32.701Z,25.27
2022-08-26T18:09:02.786Z,25.23
2022-08-26T18:11:33.885Z,25.11
2022-08-26T18:14:04.492Z,25.06
2022-08-26T18:16:38.271Z,25.02
2022-08-26T18:19:09.701Z,25.00
2022-08-26T18:21:38.950Z,24.97
2022-08-26T18:24:13.827Z,24.91
2022-08-26T18:26:48.862Z,24.87
2022-08-26T18:29:20.419Z,24.82
2022-08-26T18:31:49.721Z,24.77
2022-08-26T18:34:21.048Z,24.73
2022-08-26T18:36:51.674Z,24.65
2022-08-26T18:39:23.493Z,24.62
2022-08-26T18:41:54.269Z,24.59
2022-08-26T18:44:25.535Z,24.56
2022-08-26T18:46:55.208Z,24.50
2022-08-26T18:49:26.064Z,24.47
2022-08-26T18:51:55.729Z,24.40
2022-08-26T18:54:25.188Z,24.36
2022-08-26T18:56:54.698Z,24.31
2022-08-26T18:59:28.409Z,24.28
2022-08-26T19:02:00.174Z,24.25
2022-08-26T19:04:31.241Z,24.23
2022-08-26T19:07:00.818Z,24.19
2022-08-26T19:09:31.595Z,24.15
2022-08-26T19:12:02.623Z,24.12
2022-08-26T19:14:33.233Z,24.09
2022-08-26T19:17:02.875Z,24.08
2022-08-26T19:19:33.836Z,24.06
2022-08-26T19:22:03.594Z,24.01
2022-08-26T19:24:33.432Z,23.98
2022-08-26T19:27:02.970Z,23.96
2022-08-26T19:29:34.675Z,23.96
2022-08-26T19:32:05.321Z,23.91
2022-08-26T19:34:36.646Z,23.88
2022-08-26T19:37:06.078Z,23.84
2022-08-26T19:39:36.159Z,23.80
2022-08-26T19:42:05.800Z,23.79
2022-08-26T19:44:52.593Z,23.71
2022-08-26T19:47:22.315Z,23.68
2022-08-26T19:49:56.490Z,23.63
2022-08-26T19:52:29.888Z,23.58
2022-08-26T19:54:59.586Z,23.56
2022-08-26T19:57:29.474Z,23.49
2022-08-26T19:59:59.774Z,23.45
2022-08-26T20:02:29.579Z,23.36
2022-08-26T20:05:00.344Z,23.33
2022-08-26T20:07:29.583Z,23.29
2022-08-26T20:09:59.667Z,23.26
2022-08-26T20:12:29.294Z,23.25
2022-08-26T20:14:58.702Z,23.22
2022-08-26T20:17:28.232Z,23.22
2022-08-26T20:20:32.612Z,23.22
2022-08-26T20:23:06.109Z,23.19
2022-08-26T20:25:35.925Z,23.19
2022-08-26T20:28:05.798Z,23.15
2022-08-26T20:30:35.398Z,23.12
2022-08-26T20:33:04.786Z,23.08
2022-08-26T20:35:34.617Z,23.05
2022-08-26T20:38:05.793Z,23.03
2022-08-26T20:40:35.684Z,23.05
2022-08-26T20:43:06.141Z,23.03
2022-08-26T20:45:35.733Z,22.98
2022-08-26T20:48:05.282Z,22.93
2022-08-26T20:50:35.162Z,22.89
2022-08-26T20:53:06.000Z,22.84
2022-08-26T20:55:35.754Z,22.82
2022-08-26T20:58:05.656Z,22.77
2022-08-26T21:00:34.861Z,22.71
2022-08-26T21:03:04.783Z,22.66
2022-08-26T21:05:34.626Z,22.61
2022-08-26T21:08:05.422Z,22.58
2022-08-26T21:10:35.237Z,22.54
2022-08-26T21:13:05.463Z,22.51
2022-08-26T21:15:35.277Z,22.47
2022-08-26T21:18:05.146Z,22.42
2022-08-26T21:20:34.606Z,22.39
2022-08-26T21:23:05.880Z,22.34
2022-08-26T21:25:35.492Z,22.30
2022-08-26T21:28:05.477Z,22.27
2022-08-26T21:30:37.872Z,22.22
2022-08-26T21:33:07.800Z,22.19
2022-08-26T21:35:37.251Z,22.16
2022-08-26T21:38:08.085Z,22.12
2022-08-26T21:40:37.787Z,22.08
2022-08-26T21:43:08.299Z,22.06
2022-08-26T21:45:43.486Z,22.03
2022-08-26T21:48:13.251Z,21.98
2022-08-26T21:50:43.036Z,21.99
2022-08-26T21:53:15.543Z,21.95
2022-08-26T21:55:45.633Z,21.94
2022-08-26T21:58:15.739Z,21.91
2022-08-26T22:00:50.248Z,21.88
2022-08-26T22:03:20.231Z,21.84
2022-08-26T22:05:51.374Z,21.82
2022-08-26T22:08:24.294Z,21.77
2022-08-26T22:10:57.948Z,21.76
2022-08-26T22:13:29.558Z,21.73
2022-08-26T22:16:00.057Z,21.69
2022-08-26T22:18:31.647Z,21.69
2022-08-26T22:21:03.448Z,21.66
2022-08-26T22:23:35.417Z,21.65
2022-08-26T22:26:04.959Z,21.61
2022-08-26T22:28:34.966Z,21.57
2022-08-26T22:31:04.442Z,21.51
2022-08-26T22:33:33.794Z,21.45
2022-08-26T22:36:03.571Z,21.42
2022-08-26T22:38:34.312Z,21.40
2022-08-26T22:41:08.223Z,21.39
2022-08-26T22:43:38.503Z,21.41
2022-08-26T22:46:09.852Z,21.38
2022-08-26T22:48:40.667Z,21.35
2022-08-26T22:51:10.070Z,21.32
2022-08-26T22:53:42.482Z,21.33
2022-08-26T22:56:12.723Z,21.30
2022-08-26T22:58:42.468Z,21.25
2022-08-26T23:01:11.893Z,21.23
2022-08-26T23:03:41.498Z,21.21
2022-08-26T23:06:11.790Z,21.16
2022-08-26T23:08:45.356Z,21.13
2022-08-26T23:11:15.656Z,21.08
2022-08-26T23:13:45.038Z,21.05
2022-08-26T23:16:14.986Z,21.01
2022-08-26T23:18:45.454Z,20.99
2022-08-26T23:21:15.304Z,20.96
2022-08-26T23:23:46.386Z,20.94
2022-08-26T23:26:17.738Z,20.90
2022-08-26T23:28:47.471Z,20.86
2022-08-26T23:31:17.101Z,20.84
2022-08-26T23:34:04.160Z,20.81
2022-08-26T23:36:35.037Z,20.79
2022-08-26T23:39:06.785Z,20.74
2022-08-26T23:41:36.465Z,20.74
2022-08-26T23:44:06.251Z,20.73
2022-08-26T23:46:36.199Z,20.72
2022-08-26T23:49:06.864Z,20.73
2022-08-26T23:51:53.810Z,20.71
2022-08-26T23:54:24.904Z,20.68
2022-08-26T23:56:54.337Z,20.66
2022-08-26T23:59:23.702Z,20.66
